Rousseau, South Dakota
Current Conditions -  °F | °C
As of 11:53 PM on Sunday 23 Nov 2014 (Local Time) from KPIR Reporting Station
Overcast Overcast  
Wind Chill: 11°   Ceiling: 2500
Heat Index: 26°   Visibility: 10mi
Dew Point: 17°   Wind: 24mph
Humidity: 69%   Direction: 320°NW
Pressure: 29.67"   Gusts: 31mph
Location:  44.3693°N, 100.04°W
Report Text: KPIR 240553Z AUTO 32021G27KT 10SM OVC025 M03/M08 A2967 RMK AO2 PK WND 33029/0527 SLP062 T10331083 10000 21033 400561033 50002
Loading
Personal Weather Stations






























Interactive Weather Map New forecast layout! Learn more

10-Day Weather Forecast

Advertisements
Track Severe Weather on mobile